createdAt,value
2017-11-17T00:00:37.851Z,49.70
2017-11-17T00:01:37.855Z,48.00
2017-11-17T00:02:37.754Z,52.30
2017-11-17T00:03:37.719Z,51.10
2017-11-17T00:04:37.670Z,51.50
2017-11-17T00:05:37.625Z,48.60
2017-11-17T00:06:37.591Z,47.80
2017-11-17T00:07:37.552Z,48.60
2017-11-17T00:08:37.507Z,49.50
2017-11-17T00:09:37.465Z,48.10
2017-11-17T00:10:37.452Z,48.50
2017-11-17T00:11:37.399Z,51.70
2017-11-17T00:12:37.356Z,50.50
2017-11-17T00:13:37.317Z,51.40
2017-11-17T00:14:37.282Z,49.40
2017-11-17T00:15:37.235Z,46.70
2017-11-17T00:16:37.195Z,47.50
2017-11-17T00:17:37.156Z,53.40
2017-11-17T00:18:37.130Z,50.30
2017-11-17T00:19:37.103Z,49.40
2017-11-17T00:20:37.043Z,48.60
2017-11-17T00:21:37.025Z,48.80
2017-11-17T00:22:36.961Z,51.80
2017-11-17T00:23:36.933Z,50.30
2017-11-17T00:24:36.906Z,53.30
2017-11-17T00:25:36.858Z,50.00
2017-11-17T00:26:36.815Z,45.90
2017-11-17T00:27:36.768Z,49.20
2017-11-17T00:28:36.729Z,47.30
2017-11-17T00:29:36.693Z,44.50
2017-11-17T00:30:36.653Z,48.50
2017-11-17T00:31:36.612Z,44.90
2017-11-17T00:32:36.572Z,43.10
2017-11-17T00:33:36.541Z,50.70
2017-11-17T00:34:36.494Z,43.30
2017-11-17T00:35:36.463Z,43.60
2017-11-17T00:36:36.419Z,47.70
2017-11-17T00:37:36.375Z,47.00
2017-11-17T00:38:36.343Z,44.90
2017-11-17T00:39:36.305Z,43.20
2017-11-17T00:40:36.261Z,45.00
2017-11-17T00:41:36.252Z,43.30
2017-11-17T00:42:36.189Z,46.50
2017-11-17T00:43:36.153Z,45.20
2017-11-17T00:44:36.115Z,44.00
2017-11-17T00:45:36.069Z,43.70
2017-11-17T00:46:36.028Z,45.90
2017-11-17T00:47:35.994Z,43.70
2017-11-17T00:48:35.955Z,43.90
2017-11-17T00:49:35.933Z,42.10
2017-11-17T00:50:35.884Z,40.30
2017-11-17T00:51:35.841Z,43.10
2017-11-17T00:52:35.796Z,42.00
2017-11-17T00:53:35.764Z,45.90
2017-11-17T00:54:35.726Z,44.60
2017-11-17T00:55:35.683Z,39.60
2017-11-17T00:56:35.649Z,46.00
2017-11-17T00:57:35.613Z,43.90
2017-11-17T00:58:35.566Z,42.40
2017-11-17T00:59:35.525Z,41.10
2017-11-17T01:00:35.494Z,47.00
2017-11-17T01:01:35.453Z,42.90
2017-11-17T01:02:35.416Z,42.20
2017-11-17T01:03:35.376Z,41.70
2017-11-17T01:04:35.332Z,41.10
2017-11-17T01:05:35.305Z,42.60
2017-11-17T01:06:35.276Z,43.40
2017-11-17T01:07:36.132Z,42.70
2017-11-17T01:08:35.207Z,41.50
2017-11-17T01:09:35.143Z,44.80
2017-11-17T01:10:35.117Z,42.90
2017-11-17T01:11:35.059Z,42.60
2017-11-17T01:12:35.029Z,42.40
2017-11-17T01:13:34.982Z,42.20
2017-11-17T01:14:34.946Z,43.80
2017-11-17T01:15:34.913Z,45.50
2017-11-17T01:16:34.867Z,44.30
2017-11-17T01:17:34.830Z,43.60
2017-11-17T01:18:34.790Z,45.50
2017-11-17T01:19:34.752Z,41.70
2017-11-17T01:20:34.712Z,45.60
2017-11-17T01:21:34.682Z,44.10
2017-11-17T01:22:34.636Z,49.10
2017-11-17T01:23:34.624Z,47.80
2017-11-17T01:24:34.555Z,45.70
2017-11-17T01:25:34.525Z,45.20
2017-11-17T01:26:34.481Z,43.00
2017-11-17T01:27:34.440Z,45.60
2017-11-17T01:28:34.404Z,45.30
2017-11-17T01:29:34.364Z,44.70
2017-11-17T01:30:34.352Z,47.90
2017-11-17T01:31:34.286Z,46.90
2017-11-17T01:32:34.248Z,48.20
2017-11-17T01:33:34.217Z,43.40
2017-11-17T01:34:34.168Z,45.10
2017-11-17T01:35:34.132Z,41.90
2017-11-17T01:36:34.091Z,43.70
2017-11-17T01:37:34.053Z,46.10
2017-11-17T01:38:34.032Z,48.00
2017-11-17T01:39:33.984Z,44.60
2017-11-17T01:40:33.948Z,47.70
2017-11-17T01:41:33.904Z,45.50
2017-11-17T01:42:33.863Z,47.20
2017-11-17T01:43:33.825Z,45.90
2017-11-17T01:44:33.782Z,45.90
2017-11-17T01:45:33.756Z,49.30
2017-11-17T01:46:33.741Z,49.80
2017-11-17T01:47:33.680Z,51.40
2017-11-17T01:48:33.640Z,51.40
2017-11-17T01:49:33.599Z,55.10
2017-11-17T01:50:33.553Z,53.00
2017-11-17T01:51:33.523Z,52.60
2017-11-17T01:52:33.485Z,53.60
2017-11-17T01:53:33.434Z,49.10
2017-11-17T01:54:33.398Z,49.70
2017-11-17T01:55:33.359Z,48.10
2017-11-17T01:56:33.318Z,45.10
2017-11-17T01:57:33.284Z,46.90
2017-11-17T01:58:33.249Z,48.20
2017-11-17T01:59:33.201Z,51.00
2017-11-17T02:00:33.161Z,48.50
2017-11-17T02:01:33.126Z,45.20
2017-11-17T02:02:33.093Z,47.90
2017-11-17T02:03:33.050Z,45.10
2017-11-17T02:04:33.007Z,47.50
2017-11-17T02:05:32.970Z,51.90
2017-11-17T02:06:32.940Z,46.10
2017-11-17T02:07:32.906Z,46.50
2017-11-17T02:08:32.852Z,43.30
2017-11-17T02:09:32.818Z,46.60
2017-11-17T02:10:32.782Z,47.50
2017-11-17T02:11:32.736Z,45.40
2017-11-17T02:12:32.705Z,48.70
2017-11-17T02:13:32.661Z,46.70
2017-11-17T02:14:32.621Z,45.80
2017-11-17T02:15:32.582Z,43.30
2017-11-17T02:16:32.548Z,50.10
2017-11-17T02:17:32.507Z,46.50
2017-11-17T02:18:32.487Z,45.50
2017-11-17T02:19:32.430Z,45.30
2017-11-17T02:20:32.386Z,45.50
2017-11-17T02:21:32.347Z,49.00
2017-11-17T02:22:32.317Z,49.40
2017-11-17T02:23:32.270Z,44.50
2017-11-17T02:24:32.242Z,46.70
2017-11-17T02:25:32.206Z,51.00
2017-11-17T02:26:32.155Z,46.60
2017-11-17T02:27:32.126Z,45.30
2017-11-17T02:28:32.078Z,43.50
2017-11-17T02:29:32.037Z,43.70
2017-11-17T02:30:32.000Z,46.50
2017-11-17T02:31:31.964Z,48.00
2017-11-17T02:32:31.922Z,47.40
2017-11-17T02:33:31.911Z,47.50
2017-11-17T02:34:31.850Z,46.90
2017-11-17T02:35:31.806Z,44.50
2017-11-17T02:36:31.772Z,44.70
2017-11-17T02:37:31.734Z,46.10
2017-11-17T02:38:31.690Z,45.80
2017-11-17T02:39:31.650Z,45.40
2017-11-17T02:40:31.614Z,46.20
2017-11-17T02:41:31.572Z,44.10
2017-11-17T02:42:31.539Z,48.30
2017-11-17T02:43:31.510Z,46.80
2017-11-17T02:44:31.459Z,50.00
2017-11-17T02:45:31.419Z,46.50
2017-11-17T02:46:31.382Z,48.40
2017-11-17T02:47:31.340Z,49.30
2017-11-17T02:48:31.300Z,49.90
2017-11-17T02:49:31.280Z,47.90
2017-11-17T02:50:31.233Z,51.70
2017-11-17T02:51:31.185Z,46.60
2017-11-17T02:52:31.151Z,50.60
2017-11-17T02:53:31.113Z,48.90
2017-11-17T02:54:31.072Z,50.50
2017-11-17T02:55:31.030Z,52.50
2017-11-17T02:56:30.998Z,49.10
2017-11-17T02:57:30.956Z,48.80
2017-11-17T02:58:30.917Z,47.80
2017-11-17T02:59:30.904Z,51.00
2017-11-17T03:00:30.837Z,51.30
2017-11-17T03:01:30.812Z,53.10
2017-11-17T03:02:30.760Z,50.70
2017-11-17T03:03:30.723Z,55.00
2017-11-17T03:04:30.684Z,54.40
2017-11-17T03:05:30.657Z,54.50
2017-11-17T03:06:30.604Z,53.00
2017-11-17T03:07:30.564Z,52.30
2017-11-17T03:08:30.526Z,52.20
2017-11-17T03:09:30.489Z,56.70
2017-11-17T03:10:30.450Z,52.30
2017-11-17T03:11:30.415Z,55.60
2017-11-17T03:12:30.373Z,54.90
2017-11-17T03:13:30.338Z,60.00
2017-11-17T03:14:30.298Z,59.10
2017-11-17T03:15:30.260Z,51.70
2017-11-17T03:16:30.220Z,53.90
2017-11-17T03:17:30.182Z,56.20
2017-11-17T03:18:30.149Z,52.20
2017-11-17T03:19:30.105Z,55.60
2017-11-17T03:20:30.067Z,52.80
2017-11-17T03:21:30.025Z,54.30
2017-11-17T03:22:29.986Z,54.50
2017-11-17T03:23:29.951Z,56.50
2017-11-17T03:24:29.906Z,54.20
2017-11-17T03:25:29.877Z,58.10
2017-11-17T03:26:29.827Z,53.80
2017-11-17T03:27:29.797Z,54.40
2017-11-17T03:28:29.757Z,56.10
2017-11-17T03:29:29.723Z,57.90
2017-11-17T03:30:29.681Z,58.60
2017-11-17T03:31:29.645Z,62.70
2017-11-17T03:32:29.601Z,55.70
2017-11-17T03:33:29.569Z,56.50
2017-11-17T03:34:29.519Z,56.10
2017-11-17T03:35:29.482Z,56.60
2017-11-17T03:36:29.442Z,59.20
2017-11-17T03:37:29.408Z,52.90
2017-11-17T03:38:29.370Z,56.80
2017-11-17T03:39:29.332Z,58.30
2017-11-17T03:40:29.289Z,59.40
2017-11-17T03:41:29.250Z,57.60
2017-11-17T03:42:29.210Z,61.50
2017-11-17T03:43:29.173Z,57.30
2017-11-17T03:44:29.134Z,60.10
2017-11-17T03:45:29.097Z,60.60
2017-11-17T03:46:29.059Z,61.60
2017-11-17T03:47:29.022Z,62.50
2017-11-17T03:48:28.978Z,57.10
2017-11-17T03:49:28.937Z,61.10
2017-11-17T03:50:28.903Z,61.70
2017-11-17T03:51:28.859Z,59.00
2017-11-17T03:52:28.819Z,59.80
2017-11-17T03:53:28.784Z,59.70
2017-11-17T03:54:28.743Z,63.30
2017-11-17T03:55:28.710Z,59.40
2017-11-17T03:56:28.673Z,64.60
2017-11-17T03:57:28.628Z,61.90
2017-11-17T03:58:28.590Z,58.80
2017-11-17T03:59:28.560Z,59.80
2017-11-17T04:00:28.515Z,64.00
2017-11-17T04:01:28.473Z,61.40
2017-11-17T04:02:28.435Z,59.20
2017-11-17T04:03:28.398Z,64.60
2017-11-17T04:04:28.363Z,63.80
2017-11-17T04:05:28.322Z,65.50
2017-11-17T04:06:28.279Z,66.40
2017-11-17T04:07:28.240Z,66.90
2017-11-17T04:08:28.209Z,70.60
2017-11-17T04:09:28.164Z,67.00
2017-11-17T04:10:28.127Z,70.40
2017-11-17T04:11:28.086Z,68.40
2017-11-17T04:12:28.078Z,68.60
2017-11-17T04:13:28.013Z,68.70
2017-11-17T04:14:27.974Z,64.20
2017-11-17T04:15:27.931Z,72.60
2017-11-17T04:16:27.891Z,68.50
2017-11-17T04:17:27.862Z,65.50
2017-11-17T04:18:27.818Z,67.30
2017-11-17T04:19:27.779Z,71.30
2017-11-17T04:20:27.742Z,73.00
2017-11-17T04:21:27.704Z,72.20
2017-11-17T04:22:27.684Z,73.60
2017-11-17T04:23:27.638Z,71.90
2017-11-17T04:24:27.578Z,73.80
2017-11-17T04:25:27.541Z,77.00
2017-11-17T04:26:27.517Z,74.60
2017-11-17T04:27:27.469Z,76.10
2017-11-17T04:28:27.426Z,79.00
2017-11-17T04:29:27.385Z,78.80
2017-11-17T04:30:27.348Z,78.70
2017-11-17T04:31:27.306Z,76.90
2017-11-17T04:32:27.268Z,73.40
2017-11-17T04:33:27.231Z,73.70
2017-11-17T04:34:27.195Z,81.70
2017-11-17T04:35:27.198Z,73.70
2017-11-17T04:36:27.113Z,71.20
2017-11-17T04:37:27.075Z,77.20
2017-11-17T04:38:27.033Z,71.90
2017-11-17T04:39:26.997Z,82.70
2017-11-17T04:40:27.085Z,77.80
2017-11-17T04:41:26.918Z,75.10
2017-11-17T04:42:26.880Z,72.00
2017-11-17T04:43:26.858Z,74.70
2017-11-17T04:44:26.809Z,77.00
2017-11-17T04:45:26.759Z,74.40
2017-11-17T04:46:26.728Z,71.00
2017-11-17T04:47:26.685Z,72.30
2017-11-17T04:48:26.642Z,71.20
2017-11-17T04:49:26.606Z,73.30
2017-11-17T04:50:26.567Z,79.10
2017-11-17T04:51:26.535Z,85.50
2017-11-17T04:52:26.490Z,80.30
2017-11-17T04:53:26.451Z,71.50
2017-11-17T04:54:26.411Z,78.50
2017-11-17T04:55:26.386Z,75.50
2017-11-17T04:56:26.334Z,77.70
2017-11-17T04:57:26.298Z,76.50
2017-11-17T04:58:26.259Z,76.80
2017-11-17T04:59:26.216Z,79.00
2017-11-17T05:00:26.185Z,79.80
2017-11-17T05:01:26.148Z,78.50
2017-11-17T05:02:26.100Z,80.30
2017-11-17T05:03:26.061Z,79.70
2017-11-17T05:04:26.037Z,75.00
2017-11-17T05:05:26.014Z,73.30
2017-11-17T05:06:25.945Z,75.10
2017-11-17T05:07:25.923Z,78.10
2017-11-17T05:08:25.868Z,77.00
2017-11-17T05:09:25.828Z,78.90
2017-11-17T05:10:25.790Z,83.70
2017-11-17T05:11:25.754Z,76.20
2017-11-17T05:12:25.711Z,82.20
2017-11-17T05:13:25.670Z,76.70
2017-11-17T05:14:25.633Z,79.50
2017-11-17T05:15:25.599Z,83.40
2017-11-17T05:16:25.601Z,76.30
2017-11-17T05:17:25.521Z,74.90
2017-11-17T05:18:25.476Z,86.20
2017-11-17T05:19:25.437Z,87.00
2017-11-17T05:20:25.406Z,90.10
2017-11-17T05:21:25.361Z,87.80
2017-11-17T05:22:25.323Z,91.80
2017-11-17T05:23:25.282Z,87.40
2017-11-17T05:24:25.255Z,85.50
2017-11-17T05:25:25.201Z,84.00
2017-11-17T05:26:25.163Z,84.30
2017-11-17T05:27:25.139Z,82.80
2017-11-17T05:28:25.081Z,84.10
2017-11-17T05:29:25.041Z,82.80
2017-11-17T05:30:25.013Z,88.90
2017-11-17T05:31:24.967Z,80.70
2017-11-17T05:32:24.934Z,83.00
2017-11-17T05:33:24.888Z,104.80
2017-11-17T05:34:24.849Z,92.90
2017-11-17T05:35:24.827Z,106.30
2017-11-17T05:36:24.769Z,107.90
2017-11-17T05:37:24.738Z,96.60
2017-11-17T05:38:24.705Z,97.80
2017-11-17T05:39:24.670Z,90.00
2017-11-17T05:40:24.619Z,89.30
2017-11-17T05:41:24.571Z,90.80
2017-11-17T05:42:24.534Z,78.40
2017-11-17T05:43:24.499Z,85.00
2017-11-17T05:44:24.491Z,78.60
2017-11-17T05:45:24.417Z,82.10
2017-11-17T05:46:24.376Z,88.90
2017-11-17T05:47:24.340Z,78.70
2017-11-17T05:48:24.298Z,74.20
2017-11-17T05:49:24.259Z,76.50
2017-11-17T05:50:24.230Z,80.80
2017-11-17T05:51:24.181Z,80.90
2017-11-17T05:52:24.140Z,90.90
2017-11-17T05:53:24.102Z,93.90
2017-11-17T05:54:24.062Z,97.80
2017-11-17T05:55:24.022Z,99.70
2017-11-17T05:56:23.985Z,96.20
2017-11-17T05:57:23.945Z,101.20
2017-11-17T05:58:23.903Z,97.80
2017-11-17T05:59:23.865Z,101.40
2017-11-17T06:00:23.831Z,105.00
2017-11-17T06:01:23.792Z,109.30
2017-11-17T06:02:23.751Z,101.30
2017-11-17T06:03:23.707Z,99.50
2017-11-17T06:04:23.669Z,93.80
2017-11-17T06:05:23.630Z,90.70
2017-11-17T06:06:23.594Z,88.10
2017-11-17T06:07:23.549Z,96.90
2017-11-17T06:08:23.510Z,95.00
2017-11-17T06:09:23.470Z,96.60
2017-11-17T06:10:23.440Z,105.40
2017-11-17T06:11:23.392Z,101.50
2017-11-17T06:12:23.356Z,102.60
2017-11-17T06:13:23.314Z,96.40
2017-11-17T06:14:23.279Z,90.30
2017-11-17T06:15:23.231Z,91.50
2017-11-17T06:16:23.191Z,95.70
2017-11-17T06:17:23.154Z,88.70
2017-11-17T06:18:23.124Z,83.20
2017-11-17T06:19:23.075Z,88.40
2017-11-17T06:20:23.039Z,93.20
2017-11-17T06:21:22.997Z,92.10
2017-11-17T06:22:22.967Z,108.20
2017-11-17T06:23:22.919Z,97.10
2017-11-17T06:24:22.885Z,99.40
2017-11-17T06:25:22.844Z,99.60
2017-11-17T06:26:22.804Z,107.50
2017-11-17T06:27:22.830Z,110.80
2017-11-17T06:28:22.755Z,114.90
2017-11-17T06:29:22.687Z,110.50
2017-11-17T06:30:22.673Z,120.70
2017-11-17T06:31:22.610Z,123.60
2017-11-17T06:32:22.569Z,126.10
2017-11-17T06:33:22.528Z,124.70
2017-11-17T06:34:22.518Z,121.80
2017-11-17T06:35:22.469Z,116.40
2017-11-17T06:36:22.414Z,133.40
2017-11-17T06:37:22.367Z,123.20
2017-11-17T06:38:22.328Z,118.30
2017-11-17T06:39:22.290Z,111.50
2017-11-17T06:40:22.246Z,115.40
2017-11-17T06:41:22.211Z,116.10
2017-11-17T06:42:22.172Z,117.90
2017-11-17T06:43:22.130Z,114.90
2017-11-17T06:44:22.104Z,113.60
2017-11-17T06:45:22.057Z,122.50
2017-11-17T06:46:22.713Z,117.00
2017-11-17T06:47:21.972Z,115.30
2017-11-17T06:48:21.951Z,114.80
2017-11-17T06:49:21.888Z,106.00
2017-11-17T06:50:21.858Z,107.30
2017-11-17T06:51:21.815Z,111.10
2017-11-17T06:52:21.772Z,110.20
2017-11-17T06:53:21.735Z,107.30
2017-11-17T06:54:21.698Z,115.50
2017-11-17T06:55:21.659Z,119.60
2017-11-17T06:56:21.613Z,98.40
2017-11-17T06:57:21.575Z,90.90
2017-11-17T06:58:21.533Z,98.50
2017-11-17T06:59:21.510Z,91.00
2017-11-17T07:00:21.468Z,98.10
2017-11-17T07:01:21.416Z,87.70
2017-11-17T07:02:21.375Z,91.10
2017-11-17T07:03:21.345Z,87.10
2017-11-17T07:04:21.298Z,73.80
2017-11-17T07:05:21.258Z,77.50
2017-11-17T07:06:21.213Z,82.50
2017-11-17T07:07:21.181Z,81.70
2017-11-17T07:08:21.140Z,84.20
2017-11-17T07:09:21.094Z,77.10
2017-11-17T07:10:21.105Z,77.40
2017-11-17T07:11:21.019Z,69.30
2017-11-17T07:12:21.000Z,80.30
2017-11-17T07:13:20.942Z,68.60
2017-11-17T07:14:20.905Z,78.70
2017-11-17T07:15:20.864Z,71.10
2017-11-17T07:16:20.827Z,70.30
2017-11-17T07:17:20.789Z,69.00
2017-11-17T07:18:20.742Z,73.20
2017-11-17T07:19:20.703Z,62.50
2017-11-17T07:20:20.661Z,68.50
2017-11-17T07:21:20.625Z,75.60
2017-11-17T07:22:20.641Z,64.20
2017-11-17T07:23:20.572Z,68.80
2017-11-17T07:24:20.498Z,72.90
2017-11-17T07:25:20.460Z,66.10
2017-11-17T07:26:20.424Z,54.70
2017-11-17T07:27:20.395Z,63.50
2017-11-17T07:28:20.399Z,69.00
2017-11-17T07:29:20.302Z,66.50
2017-11-17T07:30:20.289Z,56.70
2017-11-17T07:31:20.257Z,58.50
2017-11-17T07:32:20.200Z,51.40
2017-11-17T07:33:20.146Z,50.40
2017-11-17T07:34:20.171Z,52.90
2017-11-17T07:35:20.064Z,55.30
2017-11-17T07:36:20.069Z,58.90
2017-11-17T07:37:19.995Z,52.80
2017-11-17T07:38:20.070Z,56.20
2017-11-17T07:39:19.926Z,47.10
2017-11-17T07:40:19.916Z,56.30
2017-11-17T07:41:19.828Z,49.80
2017-11-17T07:42:19.795Z,46.60
2017-11-17T07:43:19.753Z,40.70
2017-11-17T07:44:19.715Z,38.80
2017-11-17T07:45:19.667Z,39.80
2017-11-17T07:46:19.626Z,46.30
2017-11-17T07:47:19.588Z,39.60
2017-11-17T07:48:19.547Z,41.50
2017-11-17T07:49:19.509Z,35.00
2017-11-17T07:50:19.473Z,41.10
2017-11-17T07:51:19.429Z,40.50
2017-11-17T07:52:19.391Z,33.70
2017-11-17T07:53:19.358Z,35.40
2017-11-17T07:54:19.314Z,31.60
2017-11-17T07:55:19.313Z,40.30
2017-11-17T07:56:19.238Z,35.50
2017-11-17T07:57:19.203Z,32.60
2017-11-17T07:58:19.156Z,31.60
2017-11-17T07:59:19.117Z,33.80
2017-11-17T08:00:19.110Z,27.10
2017-11-17T08:01:19.040Z,30.10
2017-11-17T08:02:19.015Z,29.30
2017-11-17T08:03:18.960Z,24.60
2017-11-17T08:04:18.919Z,28.10
2017-11-17T08:05:18.881Z,22.40
2017-11-17T08:06:18.843Z,29.10
2017-11-17T08:07:18.821Z,25.00
2017-11-17T08:08:18.786Z,29.30
2017-11-17T08:09:18.720Z,25.20
2017-11-17T08:10:18.683Z,18.60
2017-11-17T08:11:18.644Z,29.90
2017-11-17T08:12:18.599Z,26.10
2017-11-17T08:13:18.558Z,23.70
2017-11-17T08:14:18.533Z,25.00
2017-11-17T08:15:18.539Z,25.60
2017-11-17T08:16:18.443Z,20.10
2017-11-17T08:17:18.418Z,22.90
2017-11-17T08:18:18.404Z,21.00
2017-11-17T08:19:18.330Z,24.10
2017-11-17T08:20:18.286Z,24.80
2017-11-17T08:21:18.246Z,21.70
2017-11-17T08:22:18.203Z,23.30
2017-11-17T08:23:18.164Z,22.30
2017-11-17T08:24:18.167Z,26.70
2017-11-17T08:25:18.091Z,29.10
2017-11-17T08:26:18.055Z,23.20
2017-11-17T08:27:18.015Z,23.90
2017-11-17T08:28:18.765Z,32.70
2017-11-17T08:29:17.947Z,24.60
2017-11-17T08:30:17.886Z,30.20
2017-11-17T08:31:17.877Z,28.20
2017-11-17T08:32:17.814Z,26.00
2017-11-17T08:33:19.733Z,25.70
2017-11-17T08:34:17.768Z,28.90
2017-11-17T08:35:17.707Z,25.30
2017-11-17T08:36:17.652Z,28.20
2017-11-17T08:37:17.620Z,21.00
2017-11-17T08:38:19.218Z,22.90
2017-11-17T08:39:17.540Z,26.50
2017-11-17T08:40:17.493Z,25.00
2017-11-17T08:41:17.474Z,26.70
2017-11-17T08:42:17.416Z,28.60
2017-11-17T08:43:20.263Z,22.80
2017-11-17T08:44:17.356Z,22.20
2017-11-17T08:45:17.295Z,24.80
2017-11-17T08:46:20.846Z,21.60
2017-11-17T08:47:19.232Z,25.70
2017-11-17T08:48:18.735Z,21.80
2017-11-17T08:49:17.136Z,25.00
2017-11-17T08:50:17.736Z,22.90
2017-11-17T08:51:21.811Z,24.40
2017-11-17T08:52:17.026Z,22.90
2017-11-17T08:53:16.981Z,26.80
2017-11-17T08:54:16.952Z,21.50
2017-11-17T08:55:16.910Z,25.70
2017-11-17T08:56:16.861Z,21.60
2017-11-17T08:57:16.832Z,20.10
2017-11-17T08:58:16.790Z,24.30
2017-11-17T08:59:16.755Z,28.10
2017-11-17T09:00:16.702Z,22.60
2017-11-17T09:01:16.667Z,20.30
2017-11-17T09:02:16.629Z,22.90
2017-11-17T09:03:16.585Z,19.10
2017-11-17T09:04:16.548Z,18.30
2017-11-17T09:05:16.513Z,22.20
2017-11-17T09:06:16.469Z,19.60
2017-11-17T09:07:16.453Z,18.30
2017-11-17T09:08:16.411Z,19.10
2017-11-17T09:09:16.357Z,21.70
2017-11-17T09:10:16.324Z,19.40
2017-11-17T09:11:16.277Z,19.90
2017-11-17T09:12:16.241Z,18.70
2017-11-17T09:13:16.201Z,23.70
2017-11-17T09:14:16.156Z,18.80
2017-11-17T09:15:16.127Z,21.80
2017-11-17T09:16:16.097Z,20.00
2017-11-17T09:17:16.043Z,25.70
2017-11-17T09:18:16.024Z,19.30
2017-11-17T09:19:15.968Z,21.20
2017-11-17T09:20:15.931Z,26.80
2017-11-17T09:21:15.882Z,21.70
2017-11-17T09:22:15.845Z,18.70
2017-11-17T09:23:15.809Z,20.70
2017-11-17T09:24:15.766Z,21.20
2017-11-17T09:25:15.726Z,21.20
2017-11-17T09:26:15.691Z,19.60
2017-11-17T09:27:15.653Z,22.60
2017-11-17T09:28:15.640Z,22.60
2017-11-17T09:29:15.571Z,21.40
2017-11-17T09:30:15.536Z,17.90
2017-11-17T09:31:15.492Z,21.80
2017-11-17T09:32:15.452Z,20.90
2017-11-17T09:33:15.413Z,15.60
2017-11-17T09:34:15.391Z,17.30
2017-11-17T09:35:15.337Z,23.10
2017-11-17T09:36:16.242Z,20.30
2017-11-17T09:37:15.259Z,18.50
2017-11-17T09:38:15.233Z,22.10
2017-11-17T09:39:15.184Z,18.50
2017-11-17T09:40:15.147Z,17.10
2017-11-17T09:41:15.120Z,18.40
2017-11-17T09:42:15.063Z,17.90
2017-11-17T09:43:15.046Z,18.00
2017-11-17T09:44:16.724Z,20.50
2017-11-17T09:45:14.944Z,18.80
2017-11-17T09:46:14.902Z,23.20
2017-11-17T09:47:14.867Z,21.50
2017-11-17T09:48:14.841Z,19.00
2017-11-17T09:49:14.796Z,20.70
2017-11-17T09:50:14.750Z,19.40
2017-11-17T09:51:14.727Z,22.20
2017-11-17T09:52:14.671Z,19.20
2017-11-17T09:53:14.632Z,20.40
2017-11-17T09:54:14.591Z,18.80
2017-11-17T09:55:14.574Z,15.00
2017-11-17T09:56:14.519Z,16.50
2017-11-17T09:57:14.477Z,16.50
2017-11-17T09:58:14.455Z,16.30
2017-11-17T09:59:14.402Z,16.00
2017-11-17T10:00:14.364Z,19.20
2017-11-17T10:01:14.319Z,17.20
2017-11-17T10:02:14.283Z,20.80
2017-11-17T10:03:14.262Z,12.30
2017-11-17T10:04:14.201Z,18.00
2017-11-17T10:05:14.189Z,17.10
2017-11-17T10:06:14.214Z,19.20
2017-11-17T10:07:18.726Z,17.90
2017-11-17T10:08:14.069Z,14.50
2017-11-17T10:09:14.018Z,14.20
2017-11-17T10:10:13.969Z,19.60
2017-11-17T10:11:14.745Z,16.70
2017-11-17T10:12:13.897Z,17.70
2017-11-17T10:13:13.880Z,17.00
2017-11-17T10:14:13.816Z,16.60
2017-11-17T10:15:14.754Z,20.90
2017-11-17T10:16:13.754Z,19.50
2017-11-17T10:17:13.701Z,21.80
2017-11-17T10:18:13.664Z,21.30
2017-11-17T10:19:13.620Z,21.10
2017-11-17T10:20:14.252Z,16.90
2017-11-17T10:21:13.549Z,15.80
2017-11-17T10:22:13.524Z,17.70
2017-11-17T10:23:13.473Z,14.40
2017-11-17T10:24:13.454Z,15.50
2017-11-17T10:25:13.390Z,15.80
2017-11-17T10:26:14.253Z,18.40
2017-11-17T10:27:13.313Z,15.80
2017-11-17T10:28:13.300Z,19.90
2017-11-17T10:29:14.249Z,20.90
2017-11-17T10:30:13.197Z,13.80
2017-11-17T10:31:13.183Z,17.70
2017-11-17T10:32:13.135Z,15.60
2017-11-17T10:33:13.092Z,18.80
2017-11-17T10:34:13.063Z,16.40
2017-11-17T10:35:13.012Z,16.60
2017-11-17T10:36:12.971Z,14.40
2017-11-17T10:37:12.926Z,13.70
2017-11-17T10:38:12.898Z,15.90
2017-11-17T10:39:12.861Z,16.50
2017-11-17T10:40:12.818Z,18.50
2017-11-17T10:41:12.792Z,20.00
2017-11-17T10:42:12.746Z,20.60
2017-11-17T10:43:12.741Z,14.90
2017-11-17T10:44:12.663Z,14.10
2017-11-17T10:45:12.621Z,15.60
2017-11-17T10:46:12.591Z,12.40
2017-11-17T10:47:12.571Z,13.30
2017-11-17T10:48:13.262Z,18.60
2017-11-17T10:49:12.472Z,14.40
2017-11-17T10:50:12.446Z,16.40
2017-11-17T10:51:12.407Z,16.50
2017-11-17T10:52:12.358Z,12.50
2017-11-17T10:53:12.337Z,10.90
2017-11-17T10:54:12.276Z,15.00
2017-11-17T10:55:12.243Z,16.80
2017-11-17T10:56:12.196Z,15.60
2017-11-17T10:57:12.168Z,15.00
2017-11-17T10:58:12.131Z,19.90
2017-11-17T10:59:12.089Z,15.90
2017-11-17T11:00:12.062Z,18.70
2017-11-17T11:01:12.012Z,18.60
2017-11-17T11:02:12.362Z,17.50
2017-11-17T11:03:11.927Z,15.90
2017-11-17T11:04:11.897Z,14.90
2017-11-17T11:05:11.853Z,13.70
2017-11-17T11:06:11.816Z,14.40
2017-11-17T11:07:11.776Z,13.20
2017-11-17T11:08:11.745Z,12.10
2017-11-17T11:09:11.716Z,15.70
2017-11-17T11:10:11.660Z,14.00
2017-11-17T11:11:11.623Z,17.50
2017-11-17T11:12:11.587Z,15.10
2017-11-17T11:13:11.564Z,14.70
2017-11-17T11:14:11.505Z,13.30
2017-11-17T11:15:11.469Z,20.00
2017-11-17T11:16:11.430Z,12.20
2017-11-17T11:17:11.391Z,14.50
2017-11-17T11:18:11.352Z,14.70
2017-11-17T11:19:11.325Z,13.40
2017-11-17T11:20:11.276Z,12.50
2017-11-17T11:21:11.234Z,14.70
2017-11-17T11:22:11.204Z,19.00
2017-11-17T11:23:11.160Z,15.50
2017-11-17T11:24:11.120Z,14.60
2017-11-17T11:25:11.082Z,15.80
2017-11-17T11:26:11.042Z,13.90
2017-11-17T11:27:11.016Z,14.80
2017-11-17T11:28:10.976Z,13.30
2017-11-17T11:29:10.930Z,12.80
2017-11-17T11:30:10.891Z,14.90
2017-11-17T11:31:10.853Z,19.30
2017-11-17T11:32:10.816Z,18.20
2017-11-17T11:33:10.777Z,18.00
2017-11-17T11:34:10.748Z,16.30
2017-11-17T11:35:10.711Z,19.90
2017-11-17T11:36:10.663Z,12.00
2017-11-17T11:37:10.631Z,13.80
2017-11-17T11:38:10.598Z,9.10
2017-11-17T11:39:10.547Z,14.80
2017-11-17T11:40:10.511Z,11.90
2017-11-17T11:41:10.471Z,11.80
2017-11-17T11:42:10.433Z,13.80
2017-11-17T11:43:10.400Z,11.10
2017-11-17T11:44:10.357Z,20.30
2017-11-17T11:45:10.319Z,16.20
2017-11-17T11:46:10.278Z,13.10
2017-11-17T11:47:10.242Z,16.40
2017-11-17T11:48:11.765Z,13.20
2017-11-17T11:49:10.170Z,17.40
2017-11-17T11:50:10.128Z,14.10
2017-11-17T11:51:10.096Z,10.60
2017-11-17T11:52:10.052Z,12.70
2017-11-17T11:53:10.006Z,14.70
2017-11-17T11:54:09.970Z,12.50
2017-11-17T11:55:09.943Z,18.70
2017-11-17T11:56:09.895Z,15.60
2017-11-17T11:57:10.764Z,14.80
2017-11-17T11:58:09.817Z,11.90
2017-11-17T11:59:09.780Z,13.00
2017-11-17T12:00:09.748Z,12.50
2017-11-17T12:01:09.727Z,11.80
2017-11-17T12:02:09.665Z,12.20
2017-11-17T12:03:09.646Z,16.00
2017-11-17T12:04:09.590Z,16.30
2017-11-17T12:05:09.571Z,11.20
2017-11-17T12:06:09.517Z,19.00
2017-11-17T12:07:09.496Z,16.10
2017-11-17T12:08:09.459Z,13.10
2017-11-17T12:09:09.421Z,10.40
2017-11-17T12:10:09.365Z,13.20
2017-11-17T12:11:09.323Z,17.30
2017-11-17T12:12:09.303Z,15.40
2017-11-17T12:13:09.245Z,14.90
2017-11-17T12:14:09.205Z,13.40
2017-11-17T12:15:09.170Z,18.60
2017-11-17T12:16:09.139Z,12.80
2017-11-17T12:17:09.095Z,11.00
2017-11-17T12:18:09.063Z,12.70
2017-11-17T12:19:09.020Z,14.30
2017-11-17T12:20:08.973Z,11.80
2017-11-17T12:21:08.955Z,12.70
2017-11-17T12:22:08.898Z,13.70
2017-11-17T12:23:08.859Z,16.50
2017-11-17T12:24:08.829Z,19.90
2017-11-17T12:25:08.783Z,13.80
2017-11-17T12:26:08.745Z,12.90
2017-11-17T12:27:08.708Z,13.00
2017-11-17T12:28:09.378Z,12.00
2017-11-17T12:29:08.629Z,15.10
2017-11-17T12:30:08.590Z,13.40
2017-11-17T12:31:08.553Z,9.70
2017-11-17T12:32:08.528Z,11.20
2017-11-17T12:33:08.485Z,12.50
2017-11-17T12:34:08.447Z,15.70
2017-11-17T12:35:08.400Z,13.70
2017-11-17T12:36:08.360Z,14.50
2017-11-17T12:37:08.321Z,11.90
2017-11-17T12:38:08.291Z,13.10
2017-11-17T12:39:08.248Z,12.80
2017-11-17T12:40:08.215Z,14.00
2017-11-17T12:41:08.172Z,13.10
2017-11-17T12:42:08.141Z,11.80
2017-11-17T12:43:08.107Z,10.30
2017-11-17T12:44:08.075Z,10.30
2017-11-17T12:45:08.026Z,11.30
2017-11-17T12:46:07.987Z,12.00
2017-11-17T12:47:07.943Z,15.60
2017-11-17T12:48:07.900Z,14.80
2017-11-17T12:49:07.877Z,12.80
2017-11-17T12:50:07.846Z,18.80
2017-11-17T12:51:07.811Z,17.90